Pendleton, OR (97801)

12:59 PM PDT en Octubre 31, 2014 (GMT -0700)
Sun Ridge Estates | Change Station
CLOSE
Current Station
Estación meteorológica personal
Location: Pendleton, OR
Altura: 1210 ft
Estaciones meteorológicas cercanas

Alt 1210 ft 45.65 °N, 118.79 °W | Updated 7 minutes ago

Nublado
Nublado
54.1 ° F
Sensación térmica 54.1 ° F
N
6.0
Viento Variable Viento desde Oeste
Gusts 18.0 mph

Hoy
Alta -- | Baja -- ° F
--% Posibilidad de precipitaciones
Ayer
Alta -- | Baja -- ° F
Precip. -- pul
7:33 AM 5:43 PM
Cuarto creciente, 58% visible
Presión 29.76 pul
Visibilidad 3.0 Millas
Nubes Nubes dispersas 300 ft
Muy nublado 900 ft
Nublado 7500 ft
Punto de rocío 50 ° F
Humedad 87%
Precipitaciones 0.00 pul
Espesor de la nieve No disponible.
UV 1 de una escala de 12
Polen 1.40 de una escala de 12
Calidad del aire No disponible.
Flu Activity No disponible.
METAR KPDT 311953Z 28017KT 3SM BR SCT003 BKN009 OVC075 12/10 A2977 RMK AO2 PK WND 28030/1927 RAE22 SLP077 P0001 T01220100 $

More Conditions Fewer Conditions

Presión 29.76 pul
Visibilidad 3.0 Millas
Nubes Nubes dispersas 300 ft
Muy nublado 900 ft
Nublado 7500 ft
Punto de rocío 50 ° F
Humedad 87%
Precipitaciones 0.00 pul
Espesor de la nieve No disponible.
UV 1 de una escala de 12
Polen 1.40 de una escala de 12
Calidad del aire No disponible.
Flu Activity No disponible.
METAR KPDT 311953Z 28017KT 3SM BR SCT003 BKN009 OVC075 12/10 A2977 RMK AO2 PK WND 28030/1927 RAE22 SLP077 P0001 T01220100 $

More Conditions Fewer Conditions

10-Day Weather Forecast

Almanac

Astronomía

Oct. 31, 2014 Salida Puesta
Hora real
Crepúsculo civil
Crepúsculo náutico
Crepúsculo astronómico
Luna
Horas de luz
Horas de luz
Tomorrow will be .
, % of the Moon is Illuminated

Extremos de hoy

Máximos del estado Bajos del estado

Community

WunderPhotos

Upload Photos

1,766,711 ¡fotos cargadas!

WunderBlogs® & News

Nearby

Calidad del aire

  Calidad del aire Índice AQ Contaminante
Not available.

Grosos de nieve

Estación Profundido Altura

Actividad de terremotos

Ciudad Distance Mag. Tiempo y dato
Magnitud mínima muestra es 2,5.

Temperaturas de aguas costeras

Lugar Temperatura

Estaciones meteorológicas cercanas